sensor_id;sensor_type;location;lat;lon;timestamp;temperature;humidity
51739;DHT22;37815;52.692;6.226;2023-07-31T00:02:51;21.00;91.80
51739;DHT22;37815;52.692;6.226;2023-07-31T00:07:52;21.00;91.90
51739;DHT22;37815;52.692;6.226;2023-07-31T00:12:54;21.00;91.90
51739;DHT22;37815;52.692;6.226;2023-07-31T00:17:55;21.10;91.90
51739;DHT22;37815;52.692;6.226;2023-07-31T00:22:55;21.00;91.90
51739;DHT22;37815;52.692;6.226;2023-07-31T00:27:56;21.00;92.00
51739;DHT22;37815;52.692;6.226;2023-07-31T00:32:57;21.00;92.00
51739;DHT22;37815;52.692;6.226;2023-07-31T00:37:58;20.90;92.00
51739;DHT22;37815;52.692;6.226;2023-07-31T00:42:58;21.00;92.10
51739;DHT22;37815;52.692;6.226;2023-07-31T00:47:59;20.90;92.10
51739;DHT22;37815;52.692;6.226;2023-07-31T00:53:00;20.90;92.20
51739;DHT22;37815;52.692;6.226;2023-07-31T00:58:00;20.90;92.20
51739;DHT22;37815;52.692;6.226;2023-07-31T01:03:01;20.90;92.20
51739;DHT22;37815;52.692;6.226;2023-07-31T01:08:42;20.80;92.20
51739;DHT22;37815;52.692;6.226;2023-07-31T01:13:44;20.80;92.20
51739;DHT22;37815;52.692;6.226;2023-07-31T01:18:46;20.80;92.20
51739;DHT22;37815;52.692;6.226;2023-07-31T01:34:23;20.70;92.20
51739;DHT22;37815;52.692;6.226;2023-07-31T01:39:25;20.80;92.30
51739;DHT22;37815;52.692;6.226;2023-07-31T01:44:26;20.70;92.30
51739;DHT22;37815;52.692;6.226;2023-07-31T01:49:27;20.70;92.30
51739;DHT22;37815;52.692;6.226;2023-07-31T01:54:27;20.70;92.30
51739;DHT22;37815;52.692;6.226;2023-07-31T01:59:28;20.70;92.40
51739;DHT22;37815;52.692;6.226;2023-07-31T02:04:29;20.70;92.40
51739;DHT22;37815;52.692;6.226;2023-07-31T02:09:30;20.60;92.40
51739;DHT22;37815;52.692;6.226;2023-07-31T02:14:30;20.60;92.40
51739;DHT22;37815;52.692;6.226;2023-07-31T02:19:31;20.60;92.50
51739;DHT22;37815;52.692;6.226;2023-07-31T02:24:31;20.60;92.50
51739;DHT22;37815;52.692;6.226;2023-07-31T02:29:32;20.60;92.50
51739;DHT22;37815;52.692;6.226;2023-07-31T02:34:33;20.60;92.50
51739;DHT22;37815;52.692;6.226;2023-07-31T02:39:33;20.60;92.60
51739;DHT22;37815;52.692;6.226;2023-07-31T02:44:34;20.60;92.60
51739;DHT22;37815;52.692;6.226;2023-07-31T02:49:34;20.60;92.60
51739;DHT22;37815;52.692;6.226;2023-07-31T02:54:35;20.60;92.70
51739;DHT22;37815;52.692;6.226;2023-07-31T02:59:36;20.50;92.70
51739;DHT22;37815;52.692;6.226;2023-07-31T03:04:36;20.50;92.70
51739;DHT22;37815;52.692;6.226;2023-07-31T03:09:37;20.50;92.80
51739;DHT22;37815;52.692;6.226;2023-07-31T03:14:37;20.50;92.80
51739;DHT22;37815;52.692;6.226;2023-07-31T03:19:38;20.50;93.10
51739;DHT22;37815;52.692;6.226;2023-07-31T03:24:38;20.50;92.90
51739;DHT22;37815;52.692;6.226;2023-07-31T03:29:39;20.50;92.90
51739;DHT22;37815;52.692;6.226;2023-07-31T03:34:40;20.40;93.00
51739;DHT22;37815;52.692;6.226;2023-07-31T03:39:40;20.40;93.00
51739;DHT22;37815;52.692;6.226;2023-07-31T03:44:41;20.50;93.00
51739;DHT22;37815;52.692;6.226;2023-07-31T03:49:42;20.40;93.10
51739;DHT22;37815;52.692;6.226;2023-07-31T03:54:42;20.40;93.10
51739;DHT22;37815;52.692;6.226;2023-07-31T03:59:44;20.40;93.10
51739;DHT22;37815;52.692;6.226;2023-07-31T04:04:45;20.40;93.20
51739;DHT22;37815;52.692;6.226;2023-07-31T04:09:46;20.40;93.20
51739;DHT22;37815;52.692;6.226;2023-07-31T04:14:46;20.40;93.30
51739;DHT22;37815;52.692;6.226;2023-07-31T04:19:47;20.40;93.30
51739;DHT22;37815;52.692;6.226;2023-07-31T04:24:47;20.40;93.30
51739;DHT22;37815;52.692;6.226;2023-07-31T04:29:48;20.40;93.40
51739;DHT22;37815;52.692;6.226;2023-07-31T04:34:49;20.40;93.50
51739;DHT22;37815;52.692;6.226;2023-07-31T04:39:49;20.30;93.50
51739;DHT22;37815;52.692;6.226;2023-07-31T04:44:50;20.40;93.60
51739;DHT22;37815;52.692;6.226;2023-07-31T04:49:51;20.30;93.60
51739;DHT22;37815;52.692;6.226;2023-07-31T04:54:51;20.30;93.60
51739;DHT22;37815;52.692;6.226;2023-07-31T04:59:52;20.30;93.70
51739;DHT22;37815;52.692;6.226;2023-07-31T05:04:52;20.30;93.60
51739;DHT22;37815;52.692;6.226;2023-07-31T05:09:53;20.30;93.70
51739;DHT22;37815;52.692;6.226;2023-07-31T05:14:54;20.30;93.60
51739;DHT22;37815;52.692;6.226;2023-07-31T05:19:54;20.30;93.60
51739;DHT22;37815;52.692;6.226;2023-07-31T05:24:55;20.30;93.70
51739;DHT22;37815;52.692;6.226;2023-07-31T05:29:56;20.30;93.60
51739;DHT22;37815;52.692;6.226;2023-07-31T05:34:56;20.30;93.70
51739;DHT22;37815;52.692;6.226;2023-07-31T05:39:57;20.10;93.60
51739;DHT22;37815;52.692;6.226;2023-07-31T05:44:57;20.30;93.70
51739;DHT22;37815;52.692;6.226;2023-07-31T05:49:58;20.30;93.70
51739;DHT22;37815;52.692;6.226;2023-07-31T05:54:59;20.30;93.80
51739;DHT22;37815;52.692;6.226;2023-07-31T05:59:59;20.30;93.80
51739;DHT22;37815;52.692;6.226;2023-07-31T06:05:00;20.30;93.80
51739;DHT22;37815;52.692;6.226;2023-07-31T06:10:03;20.30;93.80
51739;DHT22;37815;52.692;6.226;2023-07-31T06:15:16;20.30;93.90
51739;DHT22;37815;52.692;6.226;2023-07-31T06:20:18;20.30;93.90
51739;DHT22;37815;52.692;6.226;2023-07-31T06:25:19;20.30;93.90
51739;DHT22;37815;52.692;6.226;2023-07-31T06:30:19;20.30;94.20
51739;DHT22;37815;52.692;6.226;2023-07-31T06:35:20;20.30;94.10
51739;DHT22;37815;52.692;6.226;2023-07-31T06:40:22;20.30;94.20
51739;DHT22;37815;52.692;6.226;2023-07-31T06:45:22;20.30;94.20
51739;DHT22;37815;52.692;6.226;2023-07-31T06:50:23;20.30;94.20
51739;DHT22;37815;52.692;6.226;2023-07-31T06:55:24;20.30;94.20
51739;DHT22;37815;52.692;6.226;2023-07-31T07:00:24;20.30;94.20
51739;DHT22;37815;52.692;6.226;2023-07-31T07:05:25;20.30;94.20
51739;DHT22;37815;52.692;6.226;2023-07-31T07:10:26;20.30;94.20
51739;DHT22;37815;52.692;6.226;2023-07-31T07:15:26;20.30;94.30
51739;DHT22;37815;52.692;6.226;2023-07-31T07:20:27;20.30;94.30
51739;DHT22;37815;52.692;6.226;2023-07-31T07:25:28;19.50;94.20
51739;DHT22;37815;52.692;6.226;2023-07-31T07:30:28;20.30;94.30
51739;DHT22;37815;52.692;6.226;2023-07-31T07:35:29;20.30;94.30
51739;DHT22;37815;52.692;6.226;2023-07-31T07:40:30;20.30;94.30
51739;DHT22;37815;52.692;6.226;2023-07-31T07:45:30;20.30;94.30
51739;DHT22;37815;52.692;6.226;2023-07-31T07:50:31;20.30;94.40
51739;DHT22;37815;52.692;6.226;2023-07-31T07:55:32;20.30;94.40
51739;DHT22;37815;52.692;6.226;2023-07-31T08:00:33;20.40;94.50
51739;DHT22;37815;52.692;6.226;2023-07-31T08:05:33;20.30;94.50
51739;DHT22;37815;52.692;6.226;2023-07-31T08:10:34;20.30;94.50
51739;DHT22;37815;52.692;6.226;2023-07-31T08:15:35;20.30;94.50
51739;DHT22;37815;52.692;6.226;2023-07-31T08:20:35;20.30;94.50
51739;DHT22;37815;52.692;6.226;2023-07-31T08:25:37;20.30;94.70
51739;DHT22;37815;52.692;6.226;2023-07-31T08:30:37;20.30;94.80
51739;DHT22;37815;52.692;6.226;2023-07-31T08:35:38;20.30;94.70
51739;DHT22;37815;52.692;6.226;2023-07-31T08:40:39;20.30;94.70
51739;DHT22;37815;52.692;6.226;2023-07-31T08:45:42;20.30;94.70
51739;DHT22;37815;52.692;6.226;2023-07-31T08:50:43;20.30;94.70
51739;DHT22;37815;52.692;6.226;2023-07-31T08:55:44;20.30;94.70
51739;DHT22;37815;52.692;6.226;2023-07-31T09:00:46;20.30;94.80
51739;DHT22;37815;52.692;6.226;2023-07-31T09:05:47;20.30;94.90
51739;DHT22;37815;52.692;6.226;2023-07-31T09:10:48;20.30;94.80
51739;DHT22;37815;52.692;6.226;2023-07-31T09:15:52;20.30;95.00
51739;DHT22;37815;52.692;6.226;2023-07-31T09:21:05;20.30;95.10
51739;DHT22;37815;52.692;6.226;2023-07-31T09:26:05;20.30;95.10
51739;DHT22;37815;52.692;6.226;2023-07-31T09:31:06;20.40;95.10
51739;DHT22;37815;52.692;6.226;2023-07-31T09:36:07;20.40;95.20
51739;DHT22;37815;52.692;6.226;2023-07-31T09:41:07;20.40;95.40
51739;DHT22;37815;52.692;6.226;2023-07-31T09:46:13;20.40;95.50
51739;DHT22;37815;52.692;6.226;2023-07-31T09:51:14;20.40;95.40
51739;DHT22;37815;52.692;6.226;2023-07-31T09:56:15;20.40;95.50
51739;DHT22;37815;52.692;6.226;2023-07-31T10:01:17;20.40;95.40
51739;DHT22;37815;52.692;6.226;2023-07-31T10:06:17;20.40;95.30
51739;DHT22;37815;52.692;6.226;2023-07-31T10:11:21;20.50;95.40
51739;DHT22;37815;52.692;6.226;2023-07-31T10:16:22;20.40;95.70
51739;DHT22;37815;52.692;6.226;2023-07-31T10:21:23;20.50;95.60
51739;DHT22;37815;52.692;6.226;2023-07-31T10:26:25;20.50;95.60
51739;DHT22;37815;52.692;6.226;2023-07-31T10:31:28;20.50;95.40
51739;DHT22;37815;52.692;6.226;2023-07-31T10:36:29;20.50;95.40
51739;DHT22;37815;52.692;6.226;2023-07-31T10:41:30;20.60;95.40
51739;DHT22;37815;52.692;6.226;2023-07-31T10:46:33;20.60;95.50
51739;DHT22;37815;52.692;6.226;2023-07-31T10:51:34;20.60;95.50
51739;DHT22;37815;52.692;6.226;2023-07-31T10:56:37;20.60;95.50
51739;DHT22;37815;52.692;6.226;2023-07-31T11:01:52;20.60;95.50
51739;DHT22;37815;52.692;6.226;2023-07-31T11:07:01;20.60;95.50
51739;DHT22;37815;52.692;6.226;2023-07-31T11:12:03;20.60;95.50
51739;DHT22;37815;52.692;6.226;2023-07-31T11:17:07;20.60;95.60
51739;DHT22;37815;52.692;6.226;2023-07-31T11:22:08;20.60;95.60
51739;DHT22;37815;52.692;6.226;2023-07-31T11:27:09;20.70;95.70
51739;DHT22;37815;52.692;6.226;2023-07-31T11:32:16;20.80;95.90
51739;DHT22;37815;52.692;6.226;2023-07-31T11:37:18;20.80;95.90
51739;DHT22;37815;52.692;6.226;2023-07-31T11:42:18;20.80;95.90
51739;DHT22;37815;52.692;6.226;2023-07-31T11:47:19;20.90;95.80
51739;DHT22;37815;52.692;6.226;2023-07-31T11:52:20;21.00;95.90
51739;DHT22;37815;52.692;6.226;2023-07-31T11:57:21;21.00;95.80
51739;DHT22;37815;52.692;6.226;2023-07-31T12:02:22;21.00;95.90
51739;DHT22;37815;52.692;6.226;2023-07-31T12:07:24;21.00;96.20
51739;DHT22;37815;52.692;6.226;2023-07-31T12:12:26;21.10;97.50
51739;DHT22;37815;52.692;6.226;2023-07-31T12:17:26;21.10;97.20
51739;DHT22;37815;52.692;6.226;2023-07-31T12:22:27;21.20;97.00
51739;DHT22;37815;52.692;6.226;2023-07-31T12:27:32;21.20;97.20
51739;DHT22;37815;52.692;6.226;2023-07-31T12:32:34;21.30;97.30
51739;DHT22;37815;52.692;6.226;2023-07-31T12:37:34;21.30;97.10
51739;DHT22;37815;52.692;6.226;2023-07-31T12:42:35;21.40;98.00
51739;DHT22;37815;52.692;6.226;2023-07-31T12:47:35;21.40;99.10
51739;DHT22;37815;52.692;6.226;2023-07-31T12:52:36;21.60;99.50
51739;DHT22;37815;52.692;6.226;2023-07-31T12:57:37;21.60;99.90
51739;DHT22;37815;52.692;6.226;2023-07-31T13:02:37;21.60;99.40
51739;DHT22;37815;52.692;6.226;2023-07-31T13:07:38;21.70;99.60
51739;DHT22;37815;52.692;6.226;2023-07-31T13:12:39;21.80;99.90
51739;DHT22;37815;52.692;6.226;2023-07-31T13:17:40;21.80;99.50
51739;DHT22;37815;52.692;6.226;2023-07-31T13:22:41;21.80;99.40
51739;DHT22;37815;52.692;6.226;2023-07-31T13:27:42;21.70;99.70
51739;DHT22;37815;52.692;6.226;2023-07-31T13:32:42;21.70;99.90
51739;DHT22;37815;52.692;6.226;2023-07-31T13:37:43;21.50;99.80
51739;DHT22;37815;52.692;6.226;2023-07-31T13:42:44;21.50;99.80
51739;DHT22;37815;52.692;6.226;2023-07-31T13:47:44;21.40;99.80
51739;DHT22;37815;52.692;6.226;2023-07-31T13:52:45;21.40;99.70
51739;DHT22;37815;52.692;6.226;2023-07-31T13:57:45;21.60;99.70
51739;DHT22;37815;52.692;6.226;2023-07-31T14:02:46;21.50;99.60
51739;DHT22;37815;52.692;6.226;2023-07-31T14:07:47;21.50;99.40
51739;DHT22;37815;52.692;6.226;2023-07-31T14:12:47;21.50;99.40
51739;DHT22;37815;52.692;6.226;2023-07-31T14:17:48;21.50;99.40
51739;DHT22;37815;52.692;6.226;2023-07-31T14:22:48;21.50;99.40
51739;DHT22;37815;52.692;6.226;2023-07-31T14:27:50;21.40;99.30
51739;DHT22;37815;52.692;6.226;2023-07-31T14:32:50;21.50;99.60
51739;DHT22;37815;52.692;6.226;2023-07-31T14:37:51;21.50;99.50
51739;DHT22;37815;52.692;6.226;2023-07-31T14:42:51;21.50;99.40
51739;DHT22;37815;52.692;6.226;2023-07-31T14:47:52;21.50;99.50
51739;DHT22;37815;52.692;6.226;2023-07-31T14:52:53;21.50;99.50
51739;DHT22;37815;52.692;6.226;2023-07-31T14:57:53;21.30;99.50
51739;DHT22;37815;52.692;6.226;2023-07-31T15:02:54;21.40;99.50
51739;DHT22;37815;52.692;6.226;2023-07-31T15:07:54;21.40;99.40
51739;DHT22;37815;52.692;6.226;2023-07-31T15:12:55;21.40;99.50
51739;DHT22;37815;52.692;6.226;2023-07-31T15:17:56;21.40;99.60
51739;DHT22;37815;52.692;6.226;2023-07-31T15:22:57;21.30;99.50
51739;DHT22;37815;52.692;6.226;2023-07-31T15:27:57;21.30;99.70
51739;DHT22;37815;52.692;6.226;2023-07-31T15:32:59;21.30;99.90
51739;DHT22;37815;52.692;6.226;2023-07-31T15:37:59;21.30;99.90
51739;DHT22;37815;52.692;6.226;2023-07-31T15:43:00;21.30;99.90
51739;DHT22;37815;52.692;6.226;2023-07-31T15:48:02;21.30;99.90
51739;DHT22;37815;52.692;6.226;2023-07-31T15:53:03;21.30;99.90
51739;DHT22;37815;52.692;6.226;2023-07-31T15:58:04;21.30;99.90
51739;DHT22;37815;52.692;6.226;2023-07-31T16:03:04;21.20;99.90
51739;DHT22;37815;52.692;6.226;2023-07-31T16:08:05;21.30;99.90
51739;DHT22;37815;52.692;6.226;2023-07-31T16:13:06;21.30;99.90
51739;DHT22;37815;52.692;6.226;2023-07-31T16:18:06;21.30;99.90
51739;DHT22;37815;52.692;6.226;2023-07-31T16:23:07;21.30;99.90
51739;DHT22;37815;52.692;6.226;2023-07-31T16:28:08;21.30;99.90
51739;DHT22;37815;52.692;6.226;2023-07-31T16:33:08;21.30;99.90
51739;DHT22;37815;52.692;6.226;2023-07-31T16:38:09;21.20;99.90
51739;DHT22;37815;52.692;6.226;2023-07-31T16:43:09;21.20;99.90
51739;DHT22;37815;52.692;6.226;2023-07-31T16:48:10;21.30;99.80
51739;DHT22;37815;52.692;6.226;2023-07-31T16:53:11;21.30;99.70
51739;DHT22;37815;52.692;6.226;2023-07-31T16:58:11;21.30;99.70
51739;DHT22;37815;52.692;6.226;2023-07-31T17:03:12;21.30;99.50
51739;DHT22;37815;52.692;6.226;2023-07-31T17:08:13;21.30;99.40
51739;DHT22;37815;52.692;6.226;2023-07-31T17:13:15;21.30;99.40
51739;DHT22;37815;52.692;6.226;2023-07-31T17:18:15;21.20;99.40
51739;DHT22;37815;52.692;6.226;2023-07-31T17:23:16;21.20;99.40
51739;DHT22;37815;52.692;6.226;2023-07-31T17:28:16;21.30;99.40
51739;DHT22;37815;52.692;6.226;2023-07-31T17:33:17;21.20;99.40
51739;DHT22;37815;52.692;6.226;2023-07-31T17:38:18;21.20;99.60
51739;DHT22;37815;52.692;6.226;2023-07-31T17:43:18;21.30;99.40
51739;DHT22;37815;52.692;6.226;2023-07-31T17:48:19;21.20;99.50
51739;DHT22;37815;52.692;6.226;2023-07-31T17:53:20;21.20;99.40
51739;DHT22;37815;52.692;6.226;2023-07-31T17:58:21;21.20;99.40
51739;DHT22;37815;52.692;6.226;2023-07-31T18:03:21;21.20;99.60
51739;DHT22;37815;52.692;6.226;2023-07-31T18:08:25;21.20;99.50
51739;DHT22;37815;52.692;6.226;2023-07-31T18:13:25;21.20;99.70
51739;DHT22;37815;52.692;6.226;2023-07-31T18:18:26;21.10;99.90
51739;DHT22;37815;52.692;6.226;2023-07-31T18:23:27;21.10;99.90
51739;DHT22;37815;52.692;6.226;2023-07-31T18:28:27;21.20;99.80
51739;DHT22;37815;52.692;6.226;2023-07-31T18:33:28;21.20;99.70
51739;DHT22;37815;52.692;6.226;2023-07-31T18:38:29;21.10;99.60
51739;DHT22;37815;52.692;6.226;2023-07-31T18:43:33;21.20;99.50
51739;DHT22;37815;52.692;6.226;2023-07-31T18:48:33;21.20;99.40
51739;DHT22;37815;52.692;6.226;2023-07-31T18:53:34;21.10;99.30
51739;DHT22;37815;52.692;6.226;2023-07-31T18:58:35;21.20;99.20
51739;DHT22;37815;52.692;6.226;2023-07-31T19:03:35;21.10;99.20
51739;DHT22;37815;52.692;6.226;2023-07-31T19:08:37;21.10;99.10
51739;DHT22;37815;52.692;6.226;2023-07-31T19:13:39;21.10;99.00
51739;DHT22;37815;52.692;6.226;2023-07-31T19:18:40;21.10;99.00
51739;DHT22;37815;52.692;6.226;2023-07-31T19:23:41;21.00;98.90
51739;DHT22;37815;52.692;6.226;2023-07-31T19:28:41;21.10;98.90
51739;DHT22;37815;52.692;6.226;2023-07-31T19:33:42;21.00;98.90
51739;DHT22;37815;52.692;6.226;2023-07-31T19:38:43;21.00;98.90
51739;DHT22;37815;52.692;6.226;2023-07-31T19:43:43;21.00;98.90
51739;DHT22;37815;52.692;6.226;2023-07-31T19:48:44;21.00;98.80
51739;DHT22;37815;52.692;6.226;2023-07-31T19:53:44;21.00;98.80
51739;DHT22;37815;52.692;6.226;2023-07-31T19:58:45;21.00;98.80
51739;DHT22;37815;52.692;6.226;2023-07-31T20:03:45;21.00;98.80
51739;DHT22;37815;52.692;6.226;2023-07-31T20:08:46;20.90;98.70
51739;DHT22;37815;52.692;6.226;2023-07-31T20:13:47;20.90;98.70
51739;DHT22;37815;52.692;6.226;2023-07-31T20:18:48;20.90;98.70
51739;DHT22;37815;52.692;6.226;2023-07-31T20:23:49;20.90;98.70
51739;DHT22;37815;52.692;6.226;2023-07-31T20:28:49;20.90;98.60
51739;DHT22;37815;52.692;6.226;2023-07-31T20:33:50;20.90;98.90
51739;DHT22;37815;52.692;6.226;2023-07-31T20:38:51;20.90;98.70
51739;DHT22;37815;52.692;6.226;2023-07-31T20:43:51;20.90;98.60
51739;DHT22;37815;52.692;6.226;2023-07-31T20:48:52;20.90;98.60
51739;DHT22;37815;52.692;6.226;2023-07-31T20:53:53;20.90;98.60
51739;DHT22;37815;52.692;6.226;2023-07-31T20:58:53;20.80;98.60
51739;DHT22;37815;52.692;6.226;2023-07-31T21:03:54;20.80;98.60
51739;DHT22;37815;52.692;6.226;2023-07-31T21:08:54;20.80;98.50
51739;DHT22;37815;52.692;6.226;2023-07-31T21:13:55;20.80;98.50
51739;DHT22;37815;52.692;6.226;2023-07-31T21:18:58;20.80;98.40
51739;DHT22;37815;52.692;6.226;2023-07-31T21:23:58;20.70;98.30
51739;DHT22;37815;52.692;6.226;2023-07-31T21:28:59;20.70;98.30
51739;DHT22;37815;52.692;6.226;2023-07-31T21:34:01;20.70;98.30
51739;DHT22;37815;52.692;6.226;2023-07-31T21:39:02;20.70;98.30
51739;DHT22;37815;52.692;6.226;2023-07-31T21:44:03;20.70;98.20
51739;DHT22;37815;52.692;6.226;2023-07-31T21:49:04;20.70;98.20
51739;DHT22;37815;52.692;6.226;2023-07-31T21:54:09;20.70;98.20
51739;DHT22;37815;52.692;6.226;2023-07-31T21:59:10;20.70;98.20
51739;DHT22;37815;52.692;6.226;2023-07-31T22:04:10;20.70;98.10
51739;DHT22;37815;52.692;6.226;2023-07-31T22:09:11;20.70;98.10
51739;DHT22;37815;52.692;6.226;2023-07-31T22:14:11;20.70;98.10
51739;DHT22;37815;52.692;6.226;2023-07-31T22:19:12;20.60;98.10
51739;DHT22;37815;52.692;6.226;2023-07-31T22:24:13;20.60;98.10
51739;DHT22;37815;52.692;6.226;2023-07-31T22:29:14;20.70;98.10
51739;DHT22;37815;52.692;6.226;2023-07-31T22:34:15;20.60;98.10
51739;DHT22;37815;52.692;6.226;2023-07-31T22:39:16;20.60;98.10
51739;DHT22;37815;52.692;6.226;2023-07-31T22:44:16;20.60;98.00
51739;DHT22;37815;52.692;6.226;2023-07-31T22:49:17;20.60;98.00
51739;DHT22;37815;52.692;6.226;2023-07-31T22:54:17;20.60;98.00
51739;DHT22;37815;52.692;6.226;2023-07-31T22:59:18;20.60;98.00
51739;DHT22;37815;52.692;6.226;2023-07-31T23:04:19;20.50;97.90
51739;DHT22;37815;52.692;6.226;2023-07-31T23:09:20;20.50;97.90
51739;DHT22;37815;52.692;6.226;2023-07-31T23:14:21;20.50;97.90
51739;DHT22;37815;52.692;6.226;2023-07-31T23:19:21;20.60;97.90
51739;DHT22;37815;52.692;6.226;2023-07-31T23:24:24;20.50;97.90
51739;DHT22;37815;52.692;6.226;2023-07-31T23:29:24;20.50;97.90
51739;DHT22;37815;52.692;6.226;2023-07-31T23:34:25;20.50;97.90
51739;DHT22;37815;52.692;6.226;2023-07-31T23:39:25;20.50;97.90
51739;DHT22;37815;52.692;6.226;2023-07-31T23:44:26;20.50;97.90
51739;DHT22;37815;52.692;6.226;2023-07-31T23:49:27;20.50;97.90
51739;DHT22;37815;52.692;6.226;2023-07-31T23:54:28;20.40;97.80
51739;DHT22;37815;52.692;6.226;2023-07-31T23:59:28;20.40;97.90
